sensor_id;sensor_type;location;lat;lon;timestamp;P1;durP1;ratioP1;P2;durP2;ratioP2
72590;SDS011;60625;51.212;5.952;2022-08-18T00:04:20;41.70;;;26.20;;
72590;SDS011;60625;51.212;5.952;2022-08-18T00:09:23;38.70;;;26.40;;
72590;SDS011;60625;51.212;5.952;2022-08-18T00:14:24;35.90;;;23.50;;
72590;SDS011;60625;51.212;5.952;2022-08-18T00:19:25;40.20;;;26.40;;
72590;SDS011;60625;51.212;5.952;2022-08-18T00:24:32;43.60;;;26.20;;
72590;SDS011;60625;51.212;5.952;2022-08-18T00:29:33;46.30;;;25.40;;
72590;SDS011;60625;51.212;5.952;2022-08-18T00:34:34;47.30;;;31.80;;
72590;SDS011;60625;51.212;5.952;2022-08-18T00:39:38;44.60;;;29.40;;
72590;SDS011;60625;51.212;5.952;2022-08-18T00:44:40;43.30;;;28.60;;
72590;SDS011;60625;51.212;5.952;2022-08-18T00:49:42;48.70;;;30.40;;
72590;SDS011;60625;51.212;5.952;2022-08-18T00:54:45;46.00;;;30.40;;
72590;SDS011;60625;51.212;5.952;2022-08-18T00:59:53;43.70;;;29.90;;
72590;SDS011;60625;51.212;5.952;2022-08-18T01:10:09;45.30;;;28.40;;
72590;SDS011;60625;51.212;5.952;2022-08-18T01:15:17;47.20;;;29.40;;
72590;SDS011;60625;51.212;5.952;2022-08-18T01:20:29;47.70;;;31.30;;
72590;SDS011;60625;51.212;5.952;2022-08-18T01:25:52;47.30;;;30.50;;
72590;SDS011;60625;51.212;5.952;2022-08-18T01:31:10;44.40;;;28.40;;
72590;SDS011;60625;51.212;5.952;2022-08-18T01:36:22;45.10;;;28.00;;
72590;SDS011;60625;51.212;5.952;2022-08-18T01:41:23;44.50;;;29.80;;
72590;SDS011;60625;51.212;5.952;2022-08-18T01:46:34;45.60;;;29.90;;
72590;SDS011;60625;51.212;5.952;2022-08-18T01:51:35;49.60;;;30.20;;
72590;SDS011;60625;51.212;5.952;2022-08-18T01:56:41;51.20;;;31.00;;
72590;SDS011;60625;51.212;5.952;2022-08-18T02:01:44;48.60;;;30.10;;
72590;SDS011;60625;51.212;5.952;2022-08-18T02:06:48;44.40;;;30.50;;
72590;SDS011;60625;51.212;5.952;2022-08-18T02:11:52;46.60;;;28.20;;
72590;SDS011;60625;51.212;5.952;2022-08-18T02:16:57;48.00;;;29.10;;
72590;SDS011;60625;51.212;5.952;2022-08-18T02:22:00;45.60;;;29.20;;
72590;SDS011;60625;51.212;5.952;2022-08-18T02:27:06;50.40;;;29.80;;
72590;SDS011;60625;51.212;5.952;2022-08-18T02:32:08;44.00;;;28.20;;
72590;SDS011;60625;51.212;5.952;2022-08-18T02:37:11;42.20;;;27.00;;
72590;SDS011;60625;51.212;5.952;2022-08-18T02:42:12;42.40;;;28.80;;
72590;SDS011;60625;51.212;5.952;2022-08-18T02:47:14;42.30;;;27.30;;
72590;SDS011;60625;51.212;5.952;2022-08-18T02:52:15;39.30;;;26.50;;
72590;SDS011;60625;51.212;5.952;2022-08-18T02:57:16;40.40;;;26.80;;
72590;SDS011;60625;51.212;5.952;2022-08-18T03:02:17;40.90;;;26.30;;
72590;SDS011;60625;51.212;5.952;2022-08-18T03:07:17;43.60;;;27.30;;
72590;SDS011;60625;51.212;5.952;2022-08-18T03:12:18;42.50;;;26.70;;
72590;SDS011;60625;51.212;5.952;2022-08-18T03:17:18;42.70;;;27.10;;
72590;SDS011;60625;51.212;5.952;2022-08-18T03:22:19;46.40;;;27.30;;
72590;SDS011;60625;51.212;5.952;2022-08-18T03:27:20;46.60;;;29.50;;
72590;SDS011;60625;51.212;5.952;2022-08-18T03:32:21;46.80;;;30.10;;
72590;SDS011;60625;51.212;5.952;2022-08-18T03:37:21;47.00;;;30.00;;
72590;SDS011;60625;51.212;5.952;2022-08-18T03:42:22;45.60;;;29.00;;
72590;SDS011;60625;51.212;5.952;2022-08-18T03:47:23;47.10;;;29.50;;
72590;SDS011;60625;51.212;5.952;2022-08-18T03:52:24;45.70;;;29.60;;
72590;SDS011;60625;51.212;5.952;2022-08-18T03:57:26;45.80;;;28.90;;
72590;SDS011;60625;51.212;5.952;2022-08-18T04:02:26;39.30;;;24.60;;
72590;SDS011;60625;51.212;5.952;2022-08-18T04:07:28;45.30;;;28.30;;
72590;SDS011;60625;51.212;5.952;2022-08-18T04:12:30;44.30;;;27.90;;
72590;SDS011;60625;51.212;5.952;2022-08-18T04:17:30;44.00;;;28.50;;
72590;SDS011;60625;51.212;5.952;2022-08-18T04:22:32;46.70;;;30.00;;
72590;SDS011;60625;51.212;5.952;2022-08-18T04:27:34;42.00;;;26.50;;
72590;SDS011;60625;51.212;5.952;2022-08-18T04:32:35;45.50;;;28.00;;
72590;SDS011;60625;51.212;5.952;2022-08-18T04:37:36;46.90;;;29.70;;
72590;SDS011;60625;51.212;5.952;2022-08-18T04:42:37;43.40;;;28.00;;
72590;SDS011;60625;51.212;5.952;2022-08-18T04:47:39;50.00;;;27.80;;
72590;SDS011;60625;51.212;5.952;2022-08-18T04:52:42;49.10;;;29.30;;
72590;SDS011;60625;51.212;5.952;2022-08-18T04:58:01;45.90;;;28.30;;
72590;SDS011;60625;51.212;5.952;2022-08-18T05:03:01;48.50;;;29.80;;
72590;SDS011;60625;51.212;5.952;2022-08-18T05:08:03;44.60;;;27.30;;
72590;SDS011;60625;51.212;5.952;2022-08-18T05:13:04;41.00;;;26.00;;
72590;SDS011;60625;51.212;5.952;2022-08-18T05:18:05;42.50;;;27.70;;
72590;SDS011;60625;51.212;5.952;2022-08-18T05:23:06;44.00;;;29.00;;
72590;SDS011;60625;51.212;5.952;2022-08-18T05:28:08;44.70;;;26.80;;
72590;SDS011;60625;51.212;5.952;2022-08-18T05:33:09;43.90;;;27.50;;
72590;SDS011;60625;51.212;5.952;2022-08-18T05:38:25;39.70;;;26.30;;
72590;SDS011;60625;51.212;5.952;2022-08-18T05:43:32;44.30;;;28.30;;
72590;SDS011;60625;51.212;5.952;2022-08-18T05:48:34;37.90;;;22.50;;
72590;SDS011;60625;51.212;5.952;2022-08-18T05:53:36;35.20;;;23.20;;
72590;SDS011;60625;51.212;5.952;2022-08-18T05:58:58;40.20;;;26.20;;
72590;SDS011;60625;51.212;5.952;2022-08-18T06:04:05;35.80;;;23.30;;
72590;SDS011;60625;51.212;5.952;2022-08-18T06:09:23;35.50;;;23.00;;
72590;SDS011;60625;51.212;5.952;2022-08-18T06:14:28;30.70;;;21.20;;
72590;SDS011;60625;51.212;5.952;2022-08-18T06:19:42;33.00;;;21.80;;
72590;SDS011;60625;51.212;5.952;2022-08-18T06:25:26;29.50;;;20.50;;
72590;SDS011;60625;51.212;5.952;2022-08-18T06:36:35;26.70;;;18.50;;
72590;SDS011;60625;51.212;5.952;2022-08-18T06:42:04;29.00;;;18.40;;
72590;SDS011;60625;51.212;5.952;2022-08-18T06:52:38;27.30;;;17.50;;
72590;SDS011;60625;51.212;5.952;2022-08-18T06:57:56;25.80;;;17.30;;
72590;SDS011;60625;51.212;5.952;2022-08-18T07:03:06;27.50;;;21.00;;
72590;SDS011;60625;51.212;5.952;2022-08-18T07:08:19;27.40;;;19.30;;
72590;SDS011;60625;51.212;5.952;2022-08-18T07:13:38;29.00;;;19.90;;
72590;SDS011;60625;51.212;5.952;2022-08-18T07:18:40;28.00;;;18.20;;
72590;SDS011;60625;51.212;5.952;2022-08-18T07:23:42;24.20;;;15.80;;
72590;SDS011;60625;51.212;5.952;2022-08-18T07:28:48;17.60;;;10.70;;
72590;SDS011;60625;51.212;5.952;2022-08-18T07:34:02;24.40;;;17.30;;
72590;SDS011;60625;51.212;5.952;2022-08-18T07:45:02;19.90;;;13.20;;
72590;SDS011;60625;51.212;5.952;2022-08-18T07:50:11;23.20;;;16.50;;
72590;SDS011;60625;51.212;5.952;2022-08-18T08:00:31;19.60;;;13.40;;
72590;SDS011;60625;51.212;5.952;2022-08-18T08:10:57;16.90;;;11.90;;
72590;SDS011;60625;51.212;5.952;2022-08-18T08:22:03;12.30;;;8.20;;
72590;SDS011;60625;51.212;5.952;2022-08-18T08:27:21;13.70;;;9.30;;
72590;SDS011;60625;51.212;5.952;2022-08-18T08:33:10;11.50;;;7.70;;
72590;SDS011;60625;51.212;5.952;2022-08-18T08:38:21;13.60;;;8.60;;
72590;SDS011;60625;51.212;5.952;2022-08-18T08:43:31;20.30;;;10.20;;
72590;SDS011;60625;51.212;5.952;2022-08-18T08:48:41;14.50;;;9.40;;
72590;SDS011;60625;51.212;5.952;2022-08-18T08:53:53;15.40;;;11.30;;
72590;SDS011;60625;51.212;5.952;2022-08-18T08:59:09;15.60;;;10.80;;
72590;SDS011;60625;51.212;5.952;2022-08-18T09:15:36;15.70;;;11.10;;
72590;SDS011;60625;51.212;5.952;2022-08-18T09:21:33;15.40;;;11.00;;
72590;SDS011;60625;51.212;5.952;2022-08-18T09:27:27;14.30;;;11.00;;
72590;SDS011;60625;51.212;5.952;2022-08-18T09:32:55;13.70;;;8.60;;
72590;SDS011;60625;51.212;5.952;2022-08-18T09:38:15;12.60;;;8.80;;
72590;SDS011;60625;51.212;5.952;2022-08-18T10:10:32;11.10;;;7.90;;
72590;SDS011;60625;51.212;5.952;2022-08-18T10:27:00;13.40;;;8.80;;
72590;SDS011;60625;51.212;5.952;2022-08-18T10:37:13;12.10;;;7.80;;
72590;SDS011;60625;51.212;5.952;2022-08-18T10:47:35;9.40;;;7.40;;
72590;SDS011;60625;51.212;5.952;2022-08-18T11:09:30;11.40;;;7.70;;
72590;SDS011;60625;51.212;5.952;2022-08-18T11:14:59;12.00;;;7.10;;
72590;SDS011;60625;51.212;5.952;2022-08-18T11:20:18;11.90;;;7.50;;
72590;SDS011;60625;51.212;5.952;2022-08-18T11:25:25;7.80;;;5.70;;
72590;SDS011;60625;51.212;5.952;2022-08-18T11:30:32;8.40;;;6.50;;
72590;SDS011;60625;51.212;5.952;2022-08-18T11:35:57;9.10;;;6.40;;
72590;SDS011;60625;51.212;5.952;2022-08-18T11:41:18;11.40;;;6.60;;
72590;SDS011;60625;51.212;5.952;2022-08-18T11:46:31;7.90;;;5.90;;
72590;SDS011;60625;51.212;5.952;2022-08-18T11:51:56;10.10;;;6.00;;
72590;SDS011;60625;51.212;5.952;2022-08-18T12:02:44;13.10;;;9.30;;
72590;SDS011;60625;51.212;5.952;2022-08-18T12:07:45;11.00;;;8.30;;
72590;SDS011;60625;51.212;5.952;2022-08-18T12:12:48;10.20;;;8.00;;
72590;SDS011;60625;51.212;5.952;2022-08-18T12:17:51;10.90;;;8.30;;
72590;SDS011;60625;51.212;5.952;2022-08-18T12:22:55;10.80;;;7.30;;
72590;SDS011;60625;51.212;5.952;2022-08-18T12:27:56;10.60;;;6.80;;
72590;SDS011;60625;51.212;5.952;2022-08-18T12:32:56;10.10;;;6.90;;
72590;SDS011;60625;51.212;5.952;2022-08-18T12:37:57;13.30;;;7.20;;
72590;SDS011;60625;51.212;5.952;2022-08-18T12:42:57;10.90;;;6.60;;
72590;SDS011;60625;51.212;5.952;2022-08-18T12:47:58;9.80;;;7.50;;
72590;SDS011;60625;51.212;5.952;2022-08-18T12:53:02;10.90;;;8.00;;
72590;SDS011;60625;51.212;5.952;2022-08-18T12:58:02;8.80;;;7.30;;
72590;SDS011;60625;51.212;5.952;2022-08-18T13:03:04;11.10;;;6.80;;
72590;SDS011;60625;51.212;5.952;2022-08-18T13:08:11;8.00;;;5.30;;
72590;SDS011;60625;51.212;5.952;2022-08-18T13:13:17;8.40;;;6.30;;
72590;SDS011;60625;51.212;5.952;2022-08-18T13:18:19;9.40;;;6.40;;
72590;SDS011;60625;51.212;5.952;2022-08-18T13:23:19;9.50;;;6.30;;
72590;SDS011;60625;51.212;5.952;2022-08-18T13:28:20;9.40;;;6.50;;
72590;SDS011;60625;51.212;5.952;2022-08-18T13:33:20;11.10;;;6.70;;
72590;SDS011;60625;51.212;5.952;2022-08-18T13:38:22;10.80;;;6.20;;
72590;SDS011;60625;51.212;5.952;2022-08-18T13:43:37;10.40;;;6.50;;
72590;SDS011;60625;51.212;5.952;2022-08-18T13:48:42;9.10;;;6.80;;
72590;SDS011;60625;51.212;5.952;2022-08-18T13:53:42;9.20;;;6.30;;
72590;SDS011;60625;51.212;5.952;2022-08-18T13:58:43;10.50;;;6.50;;
72590;SDS011;60625;51.212;5.952;2022-08-18T14:03:43;9.80;;;6.20;;
72590;SDS011;60625;51.212;5.952;2022-08-18T14:08:44;8.30;;;6.20;;
72590;SDS011;60625;51.212;5.952;2022-08-18T14:13:45;7.80;;;5.50;;
72590;SDS011;60625;51.212;5.952;2022-08-18T14:18:46;7.80;;;5.70;;
72590;SDS011;60625;51.212;5.952;2022-08-18T14:24:07;9.00;;;5.90;;
72590;SDS011;60625;51.212;5.952;2022-08-18T14:29:37;9.00;;;5.70;;
72590;SDS011;60625;51.212;5.952;2022-08-18T14:34:38;9.00;;;6.00;;
72590;SDS011;60625;51.212;5.952;2022-08-18T14:39:38;9.10;;;6.10;;
72590;SDS011;60625;51.212;5.952;2022-08-18T14:44:40;12.30;;;5.80;;
72590;SDS011;60625;51.212;5.952;2022-08-18T14:49:40;7.00;;;5.60;;
72590;SDS011;60625;51.212;5.952;2022-08-18T14:54:42;9.10;;;5.60;;
72590;SDS011;60625;51.212;5.952;2022-08-18T14:59:43;8.90;;;5.20;;
72590;SDS011;60625;51.212;5.952;2022-08-18T15:04:43;8.30;;;4.90;;
72590;SDS011;60625;51.212;5.952;2022-08-18T15:09:44;8.30;;;5.80;;
72590;SDS011;60625;51.212;5.952;2022-08-18T15:14:45;8.30;;;5.20;;
72590;SDS011;60625;51.212;5.952;2022-08-18T15:19:46;9.00;;;5.00;;
72590;SDS011;60625;51.212;5.952;2022-08-18T15:24:48;10.60;;;5.20;;
72590;SDS011;60625;51.212;5.952;2022-08-18T15:30:13;7.70;;;6.00;;
72590;SDS011;60625;51.212;5.952;2022-08-18T15:35:17;11.10;;;8.40;;
72590;SDS011;60625;51.212;5.952;2022-08-18T15:40:22;11.40;;;8.20;;
72590;SDS011;60625;51.212;5.952;2022-08-18T15:45:30;10.30;;;7.40;;
72590;SDS011;60625;51.212;5.952;2022-08-18T15:50:32;9.80;;;7.60;;
72590;SDS011;60625;51.212;5.952;2022-08-18T15:55:34;11.70;;;8.20;;
72590;SDS011;60625;51.212;5.952;2022-08-18T16:00:43;10.50;;;6.80;;
72590;SDS011;60625;51.212;5.952;2022-08-18T16:05:52;10.30;;;7.90;;
72590;SDS011;60625;51.212;5.952;2022-08-18T16:10:54;12.30;;;10.20;;
72590;SDS011;60625;51.212;5.952;2022-08-18T16:15:55;11.90;;;8.70;;
72590;SDS011;60625;51.212;5.952;2022-08-18T16:21:02;9.70;;;7.40;;
72590;SDS011;60625;51.212;5.952;2022-08-18T16:26:11;9.40;;;6.70;;
72590;SDS011;60625;51.212;5.952;2022-08-18T16:31:14;9.10;;;7.10;;
72590;SDS011;60625;51.212;5.952;2022-08-18T16:36:15;10.10;;;6.60;;
72590;SDS011;60625;51.212;5.952;2022-08-18T16:41:17;8.70;;;6.50;;
72590;SDS011;60625;51.212;5.952;2022-08-18T16:46:20;8.70;;;6.80;;
72590;SDS011;60625;51.212;5.952;2022-08-18T16:51:26;9.90;;;5.20;;
72590;SDS011;60625;51.212;5.952;2022-08-18T16:56:29;11.10;;;5.80;;
72590;SDS011;60625;51.212;5.952;2022-08-18T17:01:33;11.60;;;5.90;;
72590;SDS011;60625;51.212;5.952;2022-08-18T17:06:55;8.20;;;5.40;;
72590;SDS011;60625;51.212;5.952;2022-08-18T17:11:56;11.40;;;5.70;;
72590;SDS011;60625;51.212;5.952;2022-08-18T17:16:58;9.30;;;5.10;;
72590;SDS011;60625;51.212;5.952;2022-08-18T17:22:01;9.70;;;6.00;;
72590;SDS011;60625;51.212;5.952;2022-08-18T17:32:32;10.40;;;5.80;;
72590;SDS011;60625;51.212;5.952;2022-08-18T17:37:44;7.90;;;5.20;;
72590;SDS011;60625;51.212;5.952;2022-08-18T17:42:51;8.50;;;5.10;;
72590;SDS011;60625;51.212;5.952;2022-08-18T17:48:00;6.90;;;4.80;;
72590;SDS011;60625;51.212;5.952;2022-08-18T17:53:04;6.90;;;4.40;;
72590;SDS011;60625;51.212;5.952;2022-08-18T17:58:24;6.60;;;3.90;;
72590;SDS011;60625;51.212;5.952;2022-08-18T18:03:42;8.40;;;4.40;;
72590;SDS011;60625;51.212;5.952;2022-08-18T18:09:27;7.30;;;4.50;;
72590;SDS011;60625;51.212;5.952;2022-08-18T18:14:35;6.50;;;4.90;;
72590;SDS011;60625;51.212;5.952;2022-08-18T18:19:39;6.30;;;4.70;;
72590;SDS011;60625;51.212;5.952;2022-08-18T18:24:52;6.80;;;4.60;;
72590;SDS011;60625;51.212;5.952;2022-08-18T18:35:24;6.30;;;4.90;;
72590;SDS011;60625;51.212;5.952;2022-08-18T18:46:25;10.50;;;6.30;;
72590;SDS011;60625;51.212;5.952;2022-08-18T18:57:11;9.00;;;4.90;;
72590;SDS011;60625;51.212;5.952;2022-08-18T19:13:27;7.70;;;5.50;;
72590;SDS011;60625;51.212;5.952;2022-08-18T19:18:34;8.90;;;5.50;;
72590;SDS011;60625;51.212;5.952;2022-08-18T19:23:50;10.00;;;5.60;;
72590;SDS011;60625;51.212;5.952;2022-08-18T19:29:05;8.00;;;5.00;;
72590;SDS011;60625;51.212;5.952;2022-08-18T19:34:20;11.50;;;5.80;;
72590;SDS011;60625;51.212;5.952;2022-08-18T19:39:46;10.20;;;6.80;;
72590;SDS011;60625;51.212;5.952;2022-08-18T19:44:52;10.60;;;6.10;;
72590;SDS011;60625;51.212;5.952;2022-08-18T20:01:03;8.00;;;6.10;;
72590;SDS011;60625;51.212;5.952;2022-08-18T20:17:23;13.20;;;7.40;;
72590;SDS011;60625;51.212;5.952;2022-08-18T20:27:39;9.70;;;7.40;;
72590;SDS011;60625;51.212;5.952;2022-08-18T20:32:41;12.00;;;8.00;;
72590;SDS011;60625;51.212;5.952;2022-08-18T20:37:42;9.80;;;7.40;;
72590;SDS011;60625;51.212;5.952;2022-08-18T20:42:45;12.50;;;7.90;;
72590;SDS011;60625;51.212;5.952;2022-08-18T20:59:05;13.20;;;9.80;;
72590;SDS011;60625;51.212;5.952;2022-08-18T21:04:12;16.00;;;10.00;;
72590;SDS011;60625;51.212;5.952;2022-08-18T21:09:16;18.70;;;10.10;;
72590;SDS011;60625;51.212;5.952;2022-08-18T21:14:28;15.10;;;10.60;;
72590;SDS011;60625;51.212;5.952;2022-08-18T21:19:29;12.10;;;9.10;;
72590;SDS011;60625;51.212;5.952;2022-08-18T21:24:42;8.70;;;7.50;;
72590;SDS011;60625;51.212;5.952;2022-08-18T21:29:44;11.60;;;7.80;;
72590;SDS011;60625;51.212;5.952;2022-08-18T21:34:46;9.60;;;7.30;;
72590;SDS011;60625;51.212;5.952;2022-08-18T21:39:54;10.30;;;7.40;;
72590;SDS011;60625;51.212;5.952;2022-08-18T21:44:57;12.00;;;8.00;;
72590;SDS011;60625;51.212;5.952;2022-08-18T21:50:20;14.30;;;9.60;;
72590;SDS011;60625;51.212;5.952;2022-08-18T21:55:42;16.90;;;10.90;;
72590;SDS011;60625;51.212;5.952;2022-08-18T22:00:46;15.50;;;11.10;;
72590;SDS011;60625;51.212;5.952;2022-08-18T22:11:34;14.30;;;10.50;;
72590;SDS011;60625;51.212;5.952;2022-08-18T22:17:32;14.40;;;11.40;;
72590;SDS011;60625;51.212;5.952;2022-08-18T22:22:44;16.10;;;12.00;;
72590;SDS011;60625;51.212;5.952;2022-08-18T22:28:03;16.40;;;12.90;;
72590;SDS011;60625;51.212;5.952;2022-08-18T22:33:03;20.40;;;13.30;;
72590;SDS011;60625;51.212;5.952;2022-08-18T22:38:04;17.70;;;13.40;;
72590;SDS011;60625;51.212;5.952;2022-08-18T22:43:05;19.10;;;13.50;;
72590;SDS011;60625;51.212;5.952;2022-08-18T22:48:05;18.70;;;13.20;;
72590;SDS011;60625;51.212;5.952;2022-08-18T22:53:06;18.50;;;13.40;;
72590;SDS011;60625;51.212;5.952;2022-08-18T22:58:07;20.50;;;16.20;;
72590;SDS011;60625;51.212;5.952;2022-08-18T23:03:08;19.90;;;17.10;;
72590;SDS011;60625;51.212;5.952;2022-08-18T23:08:08;22.00;;;16.90;;
72590;SDS011;60625;51.212;5.952;2022-08-18T23:13:09;20.20;;;17.40;;
72590;SDS011;60625;51.212;5.952;2022-08-18T23:18:10;26.00;;;17.50;;
72590;SDS011;60625;51.212;5.952;2022-08-18T23:23:11;24.90;;;17.20;;
72590;SDS011;60625;51.212;5.952;2022-08-18T23:28:11;24.50;;;19.90;;
72590;SDS011;60625;51.212;5.952;2022-08-18T23:33:13;23.10;;;19.00;;
72590;SDS011;60625;51.212;5.952;2022-08-18T23:38:16;26.10;;;20.80;;
72590;SDS011;60625;51.212;5.952;2022-08-18T23:43:17;24.70;;;20.50;;
72590;SDS011;60625;51.212;5.952;2022-08-18T23:48:22;24.40;;;18.20;;
72590;SDS011;60625;51.212;5.952;2022-08-18T23:53:23;23.10;;;18.70;;
72590;SDS011;60625;51.212;5.952;2022-08-18T23:58:23;26.70;;;20.10;;
